createdAt,value
2023-04-27T00:00:43.800Z,0.00
2023-04-27T00:01:43.851Z,0.00
2023-04-27T00:02:43.975Z,0.00
2023-04-27T00:03:43.862Z,0.00
2023-04-27T00:04:44.097Z,0.00
2023-04-27T00:05:43.902Z,0.00
2023-04-27T00:06:43.752Z,0.00
2023-04-27T00:07:43.730Z,0.00
2023-04-27T00:08:43.722Z,0.00
2023-04-27T00:09:43.701Z,0.00
2023-04-27T00:10:43.698Z,0.00
2023-04-27T00:11:43.690Z,0.00
2023-04-27T00:12:43.671Z,0.00
2023-04-27T00:13:43.684Z,0.00
2023-04-27T00:14:43.654Z,0.00
2023-04-27T00:15:43.633Z,0.00
2023-04-27T00:16:43.718Z,0.00
2023-04-27T00:17:43.670Z,0.00
2023-04-27T00:18:43.609Z,0.00
2023-04-27T00:19:43.599Z,0.00
2023-04-27T00:20:43.598Z,0.00
2023-04-27T00:21:43.581Z,0.00
2023-04-27T00:22:43.565Z,0.00
2023-04-27T00:23:43.557Z,0.00
2023-04-27T00:24:43.558Z,0.00
2023-04-27T00:25:43.541Z,0.00
2023-04-27T00:26:43.529Z,0.00
2023-04-27T00:27:43.520Z,0.00
2023-04-27T00:28:43.508Z,0.00
2023-04-27T00:29:43.494Z,0.00
2023-04-27T00:30:43.484Z,0.00
2023-04-27T00:31:43.518Z,0.00
2023-04-27T00:32:43.483Z,0.00
2023-04-27T00:33:43.456Z,0.00
2023-04-27T00:34:43.442Z,0.00
2023-04-27T00:35:43.426Z,0.00
2023-04-27T00:36:43.423Z,0.00
2023-04-27T00:37:43.417Z,0.00
2023-04-27T00:38:43.402Z,0.00
2023-04-27T00:39:43.393Z,0.00
2023-04-27T00:40:43.377Z,0.00
2023-04-27T00:41:43.363Z,0.00
2023-04-27T00:42:43.362Z,0.00
2023-04-27T00:43:43.355Z,0.00
2023-04-27T00:44:43.340Z,0.00
2023-04-27T00:45:43.354Z,0.00
2023-04-27T00:46:43.320Z,0.00
2023-04-27T00:47:43.328Z,0.00
2023-04-27T00:48:43.300Z,0.00
2023-04-27T00:49:43.288Z,0.00
2023-04-27T00:50:43.273Z,0.00
2023-04-27T00:51:43.260Z,0.00
2023-04-27T00:52:43.259Z,0.00
2023-04-27T00:53:43.247Z,0.00
2023-04-27T00:54:43.231Z,0.00
2023-04-27T00:55:43.221Z,0.00
2023-04-27T00:56:43.210Z,0.00
2023-04-27T00:57:43.205Z,0.00
2023-04-27T00:58:43.201Z,0.00
2023-04-27T00:59:43.184Z,0.00
2023-04-27T01:00:43.170Z,0.00
2023-04-27T01:01:43.230Z,0.00
2023-04-27T01:02:43.267Z,0.00
2023-04-27T01:03:43.262Z,0.00
2023-04-27T01:04:43.135Z,0.00
2023-04-27T01:05:43.116Z,0.00
2023-04-27T01:06:43.107Z,0.00
2023-04-27T01:07:43.097Z,0.00
2023-04-27T01:08:43.082Z,0.00
2023-04-27T01:09:43.071Z,0.00
2023-04-27T01:10:43.064Z,0.00
2023-04-27T01:11:43.063Z,0.00
2023-04-27T01:12:43.042Z,0.00
2023-04-27T01:13:43.038Z,0.00
2023-04-27T01:14:43.019Z,0.00
2023-04-27T01:15:43.012Z,0.00
2023-04-27T01:16:43.038Z,0.00
2023-04-27T01:17:43.039Z,0.00
2023-04-27T01:18:42.978Z,0.00
2023-04-27T01:19:42.969Z,0.00
2023-04-27T01:20:42.955Z,0.00
2023-04-27T01:21:42.952Z,0.00
2023-04-27T01:22:42.942Z,0.00
2023-04-27T01:23:42.932Z,0.00
2023-04-27T01:24:42.907Z,0.00
2023-04-27T01:25:42.910Z,0.00
2023-04-27T01:26:42.888Z,0.00
2023-04-27T01:27:42.881Z,0.00
2023-04-27T01:28:42.873Z,0.00
2023-04-27T01:29:42.861Z,0.00
2023-04-27T01:30:42.849Z,0.00
2023-04-27T01:31:42.950Z,0.00
2023-04-27T01:32:42.897Z,0.00
2023-04-27T01:33:42.828Z,0.00
2023-04-27T01:34:42.833Z,0.00
2023-04-27T01:35:42.791Z,0.00
2023-04-27T01:36:42.787Z,0.00
2023-04-27T01:37:42.775Z,0.00
2023-04-27T01:38:42.773Z,0.00
2023-04-27T01:39:42.758Z,0.00
2023-04-27T01:40:42.752Z,0.00
2023-04-27T01:41:42.736Z,0.00
2023-04-27T01:42:42.725Z,0.00
2023-04-27T01:43:42.718Z,0.00
2023-04-27T01:44:42.704Z,0.00
2023-04-27T01:45:42.692Z,0.00
2023-04-27T01:46:42.808Z,0.00
2023-04-27T01:47:42.693Z,0.00
2023-04-27T01:48:42.667Z,0.00
2023-04-27T01:49:42.651Z,0.00
2023-04-27T01:50:42.656Z,0.00
2023-04-27T01:51:42.627Z,0.00
2023-04-27T01:52:42.622Z,0.00
2023-04-27T01:53:42.627Z,0.00
2023-04-27T01:54:42.658Z,0.00
2023-04-27T01:55:42.658Z,0.00
2023-04-27T01:56:42.580Z,0.00
2023-04-27T01:57:42.577Z,0.00
2023-04-27T01:58:42.553Z,0.00
2023-04-27T01:59:42.562Z,0.00
2023-04-27T02:00:42.534Z,0.00
2023-04-27T02:01:42.602Z,0.00
2023-04-27T02:02:42.636Z,0.00
2023-04-27T02:03:42.642Z,0.00
2023-04-27T02:04:42.559Z,0.00
2023-04-27T02:05:42.483Z,0.00
2023-04-27T02:06:42.466Z,0.00
2023-04-27T02:07:42.462Z,0.00
2023-04-27T02:08:42.825Z,0.00
2023-04-27T02:09:42.442Z,0.00
2023-04-27T02:10:42.437Z,0.00
2023-04-27T02:11:42.421Z,0.00
2023-04-27T02:12:42.406Z,0.00
2023-04-27T02:13:42.401Z,0.00
2023-04-27T02:14:42.381Z,0.00
2023-04-27T02:15:42.394Z,0.00
2023-04-27T02:16:42.503Z,0.00
2023-04-27T02:17:42.377Z,0.00
2023-04-27T02:18:42.331Z,0.00
2023-04-27T02:19:42.326Z,0.00
2023-04-27T02:20:42.348Z,0.00
2023-04-27T02:21:42.325Z,0.00
2023-04-27T02:22:42.296Z,0.00
2023-04-27T02:23:42.284Z,0.00
2023-04-27T02:24:42.276Z,0.00
2023-04-27T02:25:42.302Z,0.00
2023-04-27T02:26:42.249Z,0.00
2023-04-27T02:27:42.240Z,0.00
2023-04-27T02:28:42.228Z,0.00
2023-04-27T02:29:42.225Z,0.00
2023-04-27T02:30:42.208Z,0.00
2023-04-27T02:31:42.231Z,0.00
2023-04-27T02:32:42.214Z,0.00
2023-04-27T02:33:42.176Z,0.00
2023-04-27T02:34:42.167Z,0.00
2023-04-27T02:35:42.155Z,0.00
2023-04-27T02:36:42.160Z,0.00
2023-04-27T02:37:42.135Z,0.00
2023-04-27T02:38:42.130Z,0.00
2023-04-27T02:39:42.111Z,0.00
2023-04-27T02:40:42.099Z,0.00
2023-04-27T02:41:42.110Z,0.00
2023-04-27T02:42:42.097Z,0.00
2023-04-27T02:43:42.069Z,0.00
2023-04-27T02:44:42.069Z,0.00
2023-04-27T02:45:42.045Z,0.00
2023-04-27T02:46:42.065Z,0.00
2023-04-27T02:47:42.052Z,0.00
2023-04-27T02:48:42.019Z,0.00
2023-04-27T02:49:42.005Z,0.00
2023-04-27T02:50:41.991Z,0.00
2023-04-27T02:51:41.977Z,0.00
2023-04-27T02:52:41.972Z,0.00
2023-04-27T02:53:41.961Z,0.00
2023-04-27T02:54:41.946Z,0.00
2023-04-27T02:55:41.931Z,0.00
2023-04-27T02:56:41.953Z,0.00
2023-04-27T02:57:41.912Z,0.00
2023-04-27T02:58:41.927Z,0.00
2023-04-27T02:59:41.906Z,0.00
2023-04-27T03:00:41.882Z,0.00
2023-04-27T03:01:41.953Z,0.00
2023-04-27T03:02:41.956Z,0.00
2023-04-27T03:03:41.998Z,0.00
2023-04-27T03:04:41.893Z,0.00
2023-04-27T03:05:41.837Z,0.00
2023-04-27T03:06:41.827Z,0.00
2023-04-27T03:07:41.816Z,0.00
2023-04-27T03:08:41.792Z,0.00
2023-04-27T03:09:41.814Z,0.00
2023-04-27T03:10:41.771Z,0.00
2023-04-27T03:11:41.908Z,0.00
2023-04-27T03:12:41.747Z,0.00
2023-04-27T03:13:41.741Z,0.00
2023-04-27T03:14:41.724Z,0.00
2023-04-27T03:15:41.712Z,0.00
2023-04-27T03:16:41.725Z,0.00
2023-04-27T03:17:41.742Z,0.00
2023-04-27T03:18:41.694Z,0.00
2023-04-27T03:19:41.669Z,0.00
2023-04-27T03:20:41.664Z,0.00
2023-04-27T03:21:41.654Z,0.00
2023-04-27T03:22:41.637Z,0.00
2023-04-27T03:23:41.624Z,0.00
2023-04-27T03:24:41.616Z,0.00
2023-04-27T03:25:41.604Z,0.00
2023-04-27T03:26:41.600Z,0.00
2023-04-27T03:27:41.582Z,0.00
2023-04-27T03:28:41.572Z,0.00
2023-04-27T03:29:41.563Z,0.00
2023-04-27T03:30:41.548Z,0.00
2023-04-27T03:31:41.556Z,0.00
2023-04-27T03:32:41.552Z,0.00
2023-04-27T03:33:41.523Z,0.00
2023-04-27T03:34:41.521Z,0.00
2023-04-27T03:35:41.493Z,0.00
2023-04-27T03:36:41.483Z,0.00
2023-04-27T03:37:41.477Z,0.00
2023-04-27T03:38:41.462Z,0.00
2023-04-27T03:39:41.452Z,0.00
2023-04-27T03:40:41.440Z,0.00
2023-04-27T03:41:41.433Z,0.00
2023-04-27T03:42:41.422Z,0.00
2023-04-27T03:43:41.407Z,0.00
2023-04-27T03:44:41.503Z,5.63
2023-04-27T03:45:41.418Z,5.63
2023-04-27T03:46:41.375Z,5.63
2023-04-27T03:47:41.431Z,5.63
2023-04-27T03:48:41.373Z,5.63
2023-04-27T03:49:41.341Z,5.63
2023-04-27T03:50:41.334Z,5.63
2023-04-27T03:51:41.320Z,5.63
2023-04-27T03:52:41.310Z,5.63
2023-04-27T03:53:41.312Z,11.25
2023-04-27T03:54:41.292Z,11.25
2023-04-27T03:55:41.277Z,11.25
2023-04-27T03:56:41.271Z,11.25
2023-04-27T03:57:41.256Z,11.25
2023-04-27T03:58:41.247Z,11.25
2023-04-27T03:59:41.238Z,11.25
2023-04-27T04:00:41.225Z,11.25
2023-04-27T04:01:41.238Z,16.88
2023-04-27T04:02:41.323Z,16.88
2023-04-27T04:03:41.360Z,16.88
2023-04-27T04:04:41.334Z,16.88
2023-04-27T04:05:41.171Z,16.88
2023-04-27T04:06:41.163Z,16.88
2023-04-27T04:07:41.147Z,16.88
2023-04-27T04:08:41.150Z,16.88
2023-04-27T04:09:41.127Z,22.50
2023-04-27T04:10:41.138Z,22.50
2023-04-27T04:11:41.107Z,22.50
2023-04-27T04:12:41.096Z,22.50
2023-04-27T04:13:41.092Z,22.50
2023-04-27T04:14:41.077Z,22.50
2023-04-27T04:15:41.125Z,22.50
2023-04-27T04:16:41.059Z,28.13
2023-04-27T04:17:41.101Z,28.13
2023-04-27T04:18:41.027Z,28.13
2023-04-27T04:19:41.024Z,28.13
2023-04-27T04:20:41.005Z,28.13
2023-04-27T04:21:40.996Z,33.75
2023-04-27T04:22:40.986Z,33.75
2023-04-27T04:23:41.029Z,33.75
2023-04-27T04:24:40.963Z,33.75
2023-04-27T04:25:40.951Z,33.75
2023-04-27T04:26:40.943Z,39.38
2023-04-27T04:27:40.942Z,39.38
2023-04-27T04:28:40.924Z,39.38
2023-04-27T04:29:40.907Z,39.38
2023-04-27T04:30:40.902Z,45.00
2023-04-27T04:31:40.922Z,45.00
2023-04-27T04:32:40.896Z,50.63
2023-04-27T04:33:40.864Z,50.63
2023-04-27T04:34:40.870Z,50.63
2023-04-27T04:35:40.843Z,56.25
2023-04-27T04:36:40.837Z,56.25
2023-04-27T04:37:40.823Z,56.25
2023-04-27T04:38:40.810Z,56.25
2023-04-27T04:39:40.801Z,61.88
2023-04-27T04:40:40.791Z,61.88
2023-04-27T04:41:40.781Z,61.88
2023-04-27T04:42:40.768Z,67.50
2023-04-27T04:43:40.754Z,67.50
2023-04-27T04:44:40.769Z,73.13
2023-04-27T04:45:40.736Z,78.75
2023-04-27T04:46:40.773Z,78.75
2023-04-27T04:47:40.814Z,78.75
2023-04-27T04:48:40.720Z,84.38
2023-04-27T04:49:40.697Z,84.38
2023-04-27T04:50:40.683Z,90.00
2023-04-27T04:51:40.673Z,90.00
2023-04-27T04:52:40.661Z,90.00
2023-04-27T04:53:40.652Z,90.00
2023-04-27T04:54:40.640Z,90.00
2023-04-27T04:55:40.630Z,95.63
2023-04-27T04:56:40.615Z,95.63
2023-04-27T04:57:40.628Z,101.25
2023-04-27T04:58:40.609Z,101.25
2023-04-27T04:59:40.599Z,101.25
2023-04-27T05:00:40.584Z,101.25
2023-04-27T05:01:40.586Z,101.25
2023-04-27T05:02:40.863Z,106.88
2023-04-27T05:03:40.723Z,106.88
2023-04-27T05:04:40.629Z,106.88
2023-04-27T05:05:40.525Z,106.88
2023-04-27T05:06:40.514Z,106.88
2023-04-27T05:07:40.505Z,106.88
2023-04-27T05:08:40.496Z,112.50
2023-04-27T05:09:40.489Z,112.50
2023-04-27T05:10:40.474Z,112.50
2023-04-27T05:11:40.461Z,118.13
2023-04-27T05:12:40.454Z,118.13
2023-04-27T05:13:40.448Z,123.75
2023-04-27T05:14:40.430Z,123.75
2023-04-27T05:15:40.474Z,129.38
2023-04-27T05:16:40.453Z,129.38
2023-04-27T05:17:40.407Z,129.38
2023-04-27T05:18:40.395Z,129.38
2023-04-27T05:19:40.383Z,129.38
2023-04-27T05:20:40.398Z,129.38
2023-04-27T05:21:40.359Z,129.38
2023-04-27T05:22:40.344Z,135.00
2023-04-27T05:23:40.359Z,140.63
2023-04-27T05:24:40.330Z,140.63
2023-04-27T05:25:40.319Z,146.25
2023-04-27T05:26:40.375Z,146.25
2023-04-27T05:27:40.296Z,151.88
2023-04-27T05:28:40.287Z,157.50
2023-04-27T05:29:40.279Z,163.13
2023-04-27T05:30:40.276Z,174.38
2023-04-27T05:31:40.305Z,180.00
2023-04-27T05:32:40.295Z,185.63
2023-04-27T05:33:40.249Z,191.25
2023-04-27T05:34:40.224Z,202.50
2023-04-27T05:35:40.219Z,208.13
2023-04-27T05:36:40.206Z,213.75
2023-04-27T05:37:40.193Z,225.00
2023-04-27T05:38:40.391Z,230.63
2023-04-27T05:39:40.180Z,236.25
2023-04-27T05:40:40.163Z,241.88
2023-04-27T05:41:40.256Z,241.88
2023-04-27T05:42:40.144Z,230.63
2023-04-27T05:43:40.146Z,236.25
2023-04-27T05:44:40.126Z,230.63
2023-04-27T05:45:40.144Z,236.25
2023-04-27T05:46:40.109Z,253.13
2023-04-27T05:47:40.112Z,253.13
2023-04-27T05:48:40.086Z,258.75
2023-04-27T05:49:40.076Z,253.13
2023-04-27T05:50:40.064Z,258.75
2023-04-27T05:51:40.061Z,354.38
2023-04-27T05:52:40.054Z,371.25
2023-04-27T05:53:40.040Z,337.50
2023-04-27T05:54:40.017Z,540.00
2023-04-27T05:55:40.018Z,523.13
2023-04-27T05:56:40.000Z,1231.88
2023-04-27T05:57:40.482Z,1215.00
2023-04-27T05:58:39.987Z,1220.63
2023-04-27T05:59:39.975Z,1231.88
2023-04-27T06:00:39.969Z,1170.00
2023-04-27T06:01:39.970Z,1203.75
2023-04-27T06:02:40.122Z,1136.25
2023-04-27T06:03:40.201Z,1231.88
2023-04-27T06:04:39.973Z,1282.50
2023-04-27T06:05:39.970Z,1265.63
2023-04-27T06:06:39.919Z,1175.63
2023-04-27T06:07:39.974Z,1170.00
2023-04-27T06:08:39.904Z,1226.25
2023-04-27T06:09:39.892Z,1243.13
2023-04-27T06:10:39.879Z,1209.38
2023-04-27T06:11:39.870Z,787.50
2023-04-27T06:12:39.884Z,1338.75
2023-04-27T06:13:39.859Z,1310.63
2023-04-27T06:14:39.848Z,1305.00
2023-04-27T06:15:39.885Z,1282.50
2023-04-27T06:16:39.834Z,1310.63
2023-04-27T06:17:39.857Z,1316.25
2023-04-27T06:18:39.825Z,1355.63
2023-04-27T06:19:39.810Z,1395.00
2023-04-27T06:20:39.805Z,1451.25
2023-04-27T06:21:39.790Z,1451.25
2023-04-27T06:22:39.790Z,1513.13
2023-04-27T06:23:39.783Z,1535.63
2023-04-27T06:24:39.783Z,1485.00
2023-04-27T06:25:40.352Z,1490.63
2023-04-27T06:26:39.755Z,1473.75
2023-04-27T06:27:39.756Z,1501.88
2023-04-27T06:28:39.750Z,1501.88
2023-04-27T06:29:39.743Z,1524.38
2023-04-27T06:30:39.882Z,1580.63
2023-04-27T06:31:39.891Z,1620.00
2023-04-27T06:32:39.760Z,1648.13
2023-04-27T06:33:39.722Z,1569.38
2023-04-27T06:34:39.707Z,1310.63
2023-04-27T06:35:39.720Z,1473.75
2023-04-27T06:36:39.705Z,1485.00
2023-04-27T06:37:39.699Z,1530.00
2023-04-27T06:38:39.692Z,1580.63
2023-04-27T06:39:39.682Z,1625.63
2023-04-27T06:40:39.676Z,1693.13
2023-04-27T06:41:39.673Z,1428.75
2023-04-27T06:42:39.666Z,1715.63
2023-04-27T06:43:39.670Z,1170.00
2023-04-27T06:44:39.655Z,1468.13
2023-04-27T06:45:39.648Z,1462.50
2023-04-27T06:46:39.692Z,1845.00
2023-04-27T06:47:39.722Z,1485.00
2023-04-27T06:48:39.635Z,1524.38
2023-04-27T06:49:39.628Z,1794.38
2023-04-27T06:50:39.621Z,1755.00
2023-04-27T06:51:39.626Z,1845.00
2023-04-27T06:52:39.617Z,1811.25
2023-04-27T06:53:39.616Z,1833.75
2023-04-27T06:54:39.613Z,1755.00
2023-04-27T06:55:41.682Z,1850.63
2023-04-27T06:56:39.602Z,1524.38
2023-04-27T06:57:39.591Z,1513.13
2023-04-27T06:58:39.589Z,1710.00
2023-04-27T06:59:39.578Z,1800.00
2023-04-27T07:00:39.576Z,1766.25
2023-04-27T07:01:39.614Z,1665.00
2023-04-27T07:02:39.599Z,1912.50
2023-04-27T07:03:39.682Z,2008.13
2023-04-27T07:04:39.596Z,2193.75
2023-04-27T07:05:39.555Z,2362.50
2023-04-27T07:06:39.546Z,2452.50
2023-04-27T07:07:39.540Z,1715.63
2023-04-27T07:08:39.542Z,2385.00
2023-04-27T07:09:39.537Z,1867.50
2023-04-27T07:10:39.530Z,646.88
2023-04-27T07:11:39.524Z,540.00
2023-04-27T07:12:39.530Z,511.88
2023-04-27T07:13:39.522Z,534.38
2023-04-27T07:14:39.516Z,658.13
2023-04-27T07:15:39.511Z,2075.63
2023-04-27T07:16:39.611Z,466.88
2023-04-27T07:17:39.532Z,483.75
2023-04-27T07:18:40.516Z,483.75
2023-04-27T07:19:39.693Z,500.63
2023-04-27T07:20:39.483Z,686.25
2023-04-27T07:21:39.486Z,596.25
2023-04-27T07:22:39.475Z,843.75
2023-04-27T07:23:39.495Z,1901.25
2023-04-27T07:24:39.471Z,776.25
2023-04-27T07:25:39.461Z,1468.13
2023-04-27T07:26:39.459Z,635.63
2023-04-27T07:27:39.452Z,765.00
2023-04-27T07:28:39.471Z,1845.00
2023-04-27T07:29:39.451Z,765.00
2023-04-27T07:30:39.492Z,624.38
2023-04-27T07:31:39.466Z,675.00
2023-04-27T07:32:39.476Z,691.88
2023-04-27T07:33:39.425Z,663.75
2023-04-27T07:34:52.110Z,624.38
2023-04-27T07:35:39.439Z,585.00
2023-04-27T07:36:39.403Z,641.25
2023-04-27T07:37:39.400Z,1119.38
2023-04-27T07:38:39.390Z,675.00
2023-04-27T07:39:39.388Z,1794.38
2023-04-27T07:40:39.388Z,1535.63
2023-04-27T07:41:39.379Z,607.50
2023-04-27T07:42:39.369Z,590.63
2023-04-27T07:43:39.362Z,534.38
2023-04-27T07:44:39.356Z,466.88
2023-04-27T07:45:39.387Z,551.25
2023-04-27T07:46:39.344Z,641.25
2023-04-27T07:47:39.384Z,1198.13
2023-04-27T07:48:39.332Z,1417.50
2023-04-27T07:49:39.326Z,427.50
2023-04-27T07:50:39.317Z,326.25
2023-04-27T07:51:39.313Z,410.63
2023-04-27T07:52:39.326Z,849.38
2023-04-27T07:53:39.301Z,2705.63
2023-04-27T07:54:39.298Z,2283.75
2023-04-27T07:55:39.290Z,973.13
2023-04-27T07:56:39.284Z,596.25
2023-04-27T07:57:39.293Z,523.13
2023-04-27T07:58:39.270Z,551.25
2023-04-27T07:59:39.262Z,534.38
2023-04-27T08:00:39.253Z,528.75
2023-04-27T08:01:39.291Z,410.63
2023-04-27T08:02:39.394Z,399.38
2023-04-27T08:03:39.428Z,438.75
2023-04-27T08:04:39.535Z,405.00
2023-04-27T08:05:39.492Z,427.50
2023-04-27T08:06:39.457Z,444.38
2023-04-27T08:07:42.706Z,433.13
2023-04-27T08:08:39.208Z,354.38
2023-04-27T08:09:39.220Z,326.25
2023-04-27T08:10:39.196Z,815.63
2023-04-27T08:11:39.192Z,438.75
2023-04-27T08:12:39.216Z,517.50
2023-04-27T08:13:39.185Z,506.25
2023-04-27T08:14:39.176Z,455.63
2023-04-27T08:15:39.172Z,348.75
2023-04-27T08:16:39.230Z,421.88
2023-04-27T08:17:39.190Z,348.75
2023-04-27T08:18:39.154Z,309.38
2023-04-27T08:19:39.145Z,399.38
2023-04-27T08:20:39.144Z,461.25
2023-04-27T08:21:39.124Z,489.38
2023-04-27T08:22:39.122Z,500.63
2023-04-27T08:23:39.114Z,382.50
2023-04-27T08:24:39.109Z,309.38
2023-04-27T08:25:39.105Z,219.38
2023-04-27T08:26:39.095Z,180.00
2023-04-27T08:27:39.086Z,157.50
2023-04-27T08:28:39.080Z,140.63
2023-04-27T08:29:39.072Z,123.75
2023-04-27T08:30:39.068Z,118.13
2023-04-27T08:31:39.130Z,118.13
2023-04-27T08:32:39.086Z,129.38
2023-04-27T08:33:39.047Z,146.25
2023-04-27T08:34:39.040Z,163.13
2023-04-27T08:35:39.053Z,174.38
2023-04-27T08:36:39.023Z,202.50
2023-04-27T08:37:39.016Z,236.25
2023-04-27T08:38:39.013Z,275.63
2023-04-27T08:39:39.007Z,326.25
2023-04-27T08:40:38.987Z,382.50
2023-04-27T08:41:38.994Z,399.38
2023-04-27T08:42:38.989Z,337.50
2023-04-27T08:43:38.971Z,326.25
2023-04-27T08:44:38.962Z,298.13
2023-04-27T08:45:38.957Z,286.88
2023-04-27T08:46:38.985Z,320.63
2023-04-27T08:47:43.189Z,360.00
2023-04-27T08:48:38.940Z,348.75
2023-04-27T08:49:38.942Z,427.50
2023-04-27T08:50:38.914Z,326.25
2023-04-27T08:51:38.912Z,348.75
2023-04-27T08:52:38.909Z,320.63
2023-04-27T08:53:38.889Z,337.50
2023-04-27T08:54:38.893Z,376.88
2023-04-27T08:55:38.878Z,348.75
2023-04-27T08:56:38.882Z,343.13
2023-04-27T08:57:38.861Z,315.00
2023-04-27T08:58:38.854Z,286.88
2023-04-27T08:59:38.845Z,275.63
2023-04-27T09:00:38.839Z,241.88
2023-04-27T09:01:38.876Z,236.25
2023-04-27T09:02:38.894Z,230.63
2023-04-27T09:03:38.925Z,236.25
2023-04-27T09:04:38.958Z,236.25
2023-04-27T09:05:44.125Z,247.50
2023-04-27T09:06:38.793Z,264.38
2023-04-27T09:07:38.790Z,281.25
2023-04-27T09:08:38.776Z,292.50
2023-04-27T09:09:38.771Z,286.88
2023-04-27T09:10:38.760Z,309.38
2023-04-27T09:11:38.756Z,320.63
2023-04-27T09:12:38.743Z,309.38
2023-04-27T09:13:38.744Z,320.63
2023-04-27T09:14:38.728Z,326.25
2023-04-27T09:15:38.716Z,331.88
2023-04-27T09:16:38.805Z,331.88
2023-04-27T09:17:38.779Z,326.25
2023-04-27T09:18:38.699Z,331.88
2023-04-27T09:19:38.689Z,337.50
2023-04-27T09:20:38.681Z,343.13
2023-04-27T09:21:38.672Z,343.13
2023-04-27T09:22:38.665Z,331.88
2023-04-27T09:23:38.656Z,337.50
2023-04-27T09:24:38.653Z,331.88
2023-04-27T09:25:38.645Z,320.63
2023-04-27T09:26:38.640Z,309.38
2023-04-27T09:27:38.626Z,309.38
2023-04-27T09:28:38.615Z,331.88
2023-04-27T09:29:38.714Z,376.88
2023-04-27T09:30:38.607Z,399.38
2023-04-27T09:31:38.607Z,433.13
2023-04-27T09:32:38.600Z,399.38
2023-04-27T09:33:38.581Z,343.13
2023-04-27T09:34:38.570Z,298.13
2023-04-27T09:35:38.563Z,258.75
2023-04-27T09:36:38.557Z,230.63
2023-04-27T09:37:38.557Z,208.13
2023-04-27T09:38:38.570Z,191.25
2023-04-27T09:39:38.568Z,180.00
2023-04-27T09:40:38.564Z,180.00
2023-04-27T09:41:38.523Z,180.00
2023-04-27T09:42:38.551Z,191.25
2023-04-27T09:43:38.561Z,202.50
2023-04-27T09:44:38.507Z,208.13
2023-04-27T09:45:38.508Z,236.25
2023-04-27T09:46:38.476Z,275.63
2023-04-27T09:47:38.497Z,292.50
2023-04-27T09:48:38.460Z,326.25
2023-04-27T09:49:38.450Z,410.63
2023-04-27T09:50:38.450Z,466.88
2023-04-27T09:51:38.435Z,489.38
2023-04-27T09:52:38.428Z,517.50
2023-04-27T09:53:38.422Z,517.50
2023-04-27T09:54:38.406Z,528.75
2023-04-27T09:55:38.401Z,506.25
2023-04-27T09:56:38.416Z,534.38
2023-04-27T09:57:38.387Z,506.25
2023-04-27T09:58:38.381Z,545.63
2023-04-27T09:59:38.373Z,556.88
2023-04-27T10:00:38.361Z,545.63
2023-04-27T10:01:38.368Z,511.88
2023-04-27T10:02:50.290Z,478.13
2023-04-27T10:03:38.393Z,461.25
2023-04-27T10:04:38.394Z,472.50
2023-04-27T10:05:38.324Z,472.50
2023-04-27T10:06:38.318Z,489.38
2023-04-27T10:07:38.308Z,489.38
2023-04-27T10:08:38.307Z,495.00
2023-04-27T10:09:38.292Z,438.75
2023-04-27T10:10:38.288Z,388.13
2023-04-27T10:11:38.281Z,337.50
2023-04-27T10:12:38.271Z,286.88
2023-04-27T10:13:38.292Z,253.13
2023-04-27T10:14:38.258Z,230.63
2023-04-27T10:15:38.251Z,213.75
2023-04-27T10:16:38.266Z,208.13
2023-04-27T10:17:38.254Z,202.50
2023-04-27T10:18:38.232Z,208.13
2023-04-27T10:19:38.228Z,213.75
2023-04-27T10:20:38.227Z,230.63
2023-04-27T10:21:38.205Z,247.50
2023-04-27T10:22:38.199Z,258.75
2023-04-27T10:23:38.193Z,275.63
2023-04-27T10:24:38.194Z,298.13
2023-04-27T10:25:38.180Z,320.63
2023-04-27T10:26:39.952Z,320.63
2023-04-27T10:27:38.168Z,309.38
2023-04-27T10:28:38.157Z,320.63
2023-04-27T10:29:38.149Z,337.50
2023-04-27T10:30:38.221Z,309.38
2023-04-27T10:31:38.135Z,365.63
2023-04-27T10:32:38.176Z,421.88
2023-04-27T10:33:38.126Z,416.25
2023-04-27T10:34:38.116Z,466.88
2023-04-27T10:35:38.112Z,483.75
2023-04-27T10:36:38.107Z,433.13
2023-04-27T10:37:38.087Z,405.00
2023-04-27T10:38:38.086Z,382.50
2023-04-27T10:39:47.806Z,354.38
2023-04-27T10:40:38.120Z,331.88
2023-04-27T10:41:38.064Z,315.00
2023-04-27T10:42:38.062Z,286.88
2023-04-27T10:43:38.050Z,292.50
2023-04-27T10:44:38.043Z,309.38
2023-04-27T10:45:38.033Z,326.25
2023-04-27T10:46:38.127Z,337.50
2023-04-27T10:47:38.165Z,348.75
2023-04-27T10:48:38.012Z,393.75
2023-04-27T10:49:38.007Z,421.88
2023-04-27T10:50:37.995Z,416.25
2023-04-27T10:51:37.996Z,399.38
2023-04-27T10:52:37.985Z,365.63
2023-04-27T10:53:37.979Z,354.38
2023-04-27T10:54:37.971Z,337.50
2023-04-27T10:55:37.963Z,326.25
2023-04-27T10:56:37.955Z,348.75
2023-04-27T10:57:37.943Z,371.25
2023-04-27T10:58:48.313Z,376.88
2023-04-27T10:59:37.932Z,376.88
2023-04-27T11:00:37.936Z,376.88
2023-04-27T11:01:37.956Z,348.75
2023-04-27T11:02:38.031Z,343.13
2023-04-27T11:03:38.063Z,343.13
2023-04-27T11:04:37.942Z,354.38
2023-04-27T11:05:37.893Z,354.38
2023-04-27T11:06:37.878Z,371.25
2023-04-27T11:07:37.872Z,371.25
2023-04-27T11:08:37.874Z,376.88
2023-04-27T11:09:37.855Z,433.13
2023-04-27T11:10:37.877Z,433.13
2023-04-27T11:11:37.860Z,444.38
2023-04-27T11:12:37.836Z,455.63
2023-04-27T11:13:37.827Z,461.25
2023-04-27T11:14:37.821Z,444.38
2023-04-27T11:15:37.825Z,466.88
2023-04-27T11:16:37.945Z,455.63
2023-04-27T11:17:37.806Z,450.00
2023-04-27T11:18:37.795Z,450.00
2023-04-27T11:19:37.785Z,461.25
2023-04-27T11:20:37.785Z,483.75
2023-04-27T11:21:37.769Z,455.63
2023-04-27T11:22:37.764Z,455.63
2023-04-27T11:23:37.756Z,461.25
2023-04-27T11:24:37.751Z,478.13
2023-04-27T11:25:37.767Z,506.25
2023-04-27T11:26:37.748Z,489.38
2023-04-27T11:27:37.744Z,517.50
2023-04-27T11:28:37.731Z,478.13
2023-04-27T11:29:37.724Z,478.13
2023-04-27T11:30:37.712Z,472.50
2023-04-27T11:31:37.738Z,461.25
2023-04-27T11:32:37.701Z,455.63
2023-04-27T11:33:37.687Z,444.38
2023-04-27T11:34:37.680Z,433.13
2023-04-27T11:35:37.691Z,410.63
2023-04-27T11:36:37.668Z,393.75
2023-04-27T11:37:37.675Z,371.25
2023-04-27T11:38:37.746Z,348.75
2023-04-27T11:39:37.655Z,331.88
2023-04-27T11:40:37.645Z,292.50
2023-04-27T11:41:37.637Z,264.38
2023-04-27T11:42:37.638Z,241.88
2023-04-27T11:43:37.625Z,230.63
2023-04-27T11:44:37.620Z,236.25
2023-04-27T11:45:37.628Z,225.00
2023-04-27T11:46:37.622Z,241.88
2023-04-27T11:47:37.677Z,253.13
2023-04-27T11:48:37.602Z,264.38
2023-04-27T11:49:37.597Z,286.88
2023-04-27T11:50:37.573Z,315.00
2023-04-27T11:51:37.563Z,337.50
2023-04-27T11:52:37.568Z,343.13
2023-04-27T11:53:37.552Z,348.75
2023-04-27T11:54:37.547Z,354.38
2023-04-27T11:55:37.537Z,354.38
2023-04-27T11:56:37.532Z,354.38
2023-04-27T11:57:37.527Z,354.38
2023-04-27T11:58:37.517Z,348.75
2023-04-27T11:59:37.509Z,331.88
2023-04-27T12:00:37.509Z,309.38
2023-04-27T12:01:38.488Z,281.25
2023-04-27T12:02:37.671Z,264.38
2023-04-27T12:03:37.691Z,258.75
2023-04-27T12:04:37.768Z,253.13
2023-04-27T12:05:37.501Z,258.75
2023-04-27T12:06:37.563Z,264.38
2023-04-27T12:07:37.455Z,281.25
2023-04-27T12:08:37.446Z,298.13
2023-04-27T12:09:37.437Z,331.88
2023-04-27T12:10:37.428Z,365.63
2023-04-27T12:11:37.421Z,388.13
2023-04-27T12:12:37.414Z,399.38
2023-04-27T12:13:37.405Z,393.75
2023-04-27T12:14:37.398Z,399.38
2023-04-27T12:15:37.391Z,416.25
2023-04-27T12:16:37.422Z,421.88
2023-04-27T12:17:37.422Z,433.13
2023-04-27T12:18:37.367Z,433.13
2023-04-27T12:19:37.376Z,388.13
2023-04-27T12:20:37.355Z,399.38
2023-04-27T12:21:37.344Z,410.63
2023-04-27T12:22:37.348Z,427.50
2023-04-27T12:23:37.340Z,427.50
2023-04-27T12:24:37.331Z,405.00
2023-04-27T12:25:37.314Z,371.25
2023-04-27T12:26:37.323Z,337.50
2023-04-27T12:27:37.301Z,320.63
2023-04-27T12:28:37.305Z,315.00
2023-04-27T12:29:37.283Z,309.38
2023-04-27T12:30:37.369Z,309.38
2023-04-27T12:31:37.357Z,320.63
2023-04-27T12:32:37.287Z,343.13
2023-04-27T12:33:37.252Z,354.38
2023-04-27T12:34:37.248Z,376.88
2023-04-27T12:35:37.263Z,399.38
2023-04-27T12:36:37.234Z,410.63
2023-04-27T12:37:37.225Z,416.25
2023-04-27T12:38:37.240Z,416.25
2023-04-27T12:39:37.214Z,416.25
2023-04-27T12:40:37.216Z,410.63
2023-04-27T12:41:37.202Z,416.25
2023-04-27T12:42:37.194Z,433.13